Time;durP1;ratioP1;P1;durP2;ratioP2;P2;SDS_P1;SDS_P2;PMS_P1;PMS_P2;Temp;Humidity;BMP_temperature;BMP_pressure;BME280_temperature;BME280_humidity;BME280_pressure;Samples;Min_cycle;Max_cycle;Signal;HPM_P1;HPM_P2
2021/03/24 00:01:53;;;;;;;65.15;32.65;;;4.10;99.90;;;5.28;80.20;101388.06;5004310;28;20073;-83
2021/03/24 00:04:18;;;;;;;61.22;32.65;;;4.10;99.90;;;5.18;80.40;101383.53;5022154;28;20535;-81
2021/03/24 00:06:44;;;;;;;58.63;33.60;;;4.10;99.90;;;5.09;80.47;101379.00;5004541;28;20029;-83
2021/03/24 00:09:16;;;;;;;62.53;34.15;;;3.90;99.90;;;5.01;81.20;101380.50;5031593;28;20084;-82
2021/03/24 00:11:44;;;;;;;62.05;33.88;;;3.90;99.90;;;5.02;81.49;101381.31;5013684;28;20030;-82
2021/03/24 00:14:09;;;;;;;66.15;35.17;;;3.90;99.90;;;5.06;81.91;101382.38;5019678;28;20141;-84
2021/03/24 00:16:35;;;;;;;62.53;33.50;;;3.90;99.90;;;5.05;81.42;101383.47;5021013;28;20034;-84
2021/03/24 00:19:03;;;;;;;62.63;33.63;;;3.90;99.90;;;5.04;81.44;101377.13;5004276;28;20080;-86
2021/03/24 00:21:29;;;;;;;61.83;34.42;;;3.90;99.90;;;5.01;81.61;101376.94;5004717;28;20092;-85
2021/03/24 00:23:55;;;;;;;55.08;33.63;;;3.90;99.90;;;5.03;81.78;101383.81;5007115;28;20022;-86
2021/03/24 00:26:21;;;;;;;62.92;33.35;;;3.90;99.90;;;5.09;81.56;101381.75;5004662;28;20436;-85
2021/03/24 00:28:47;;;;;;;60.20;33.70;;;3.90;99.90;;;5.14;81.71;101379.72;5002308;28;20160;-85
2021/03/24 00:31:13;;;;;;;66.25;33.97;;;4.00;99.90;;;5.20;80.66;101381.25;5019559;28;20481;-85
2021/03/24 00:33:38;;;;;;;55.80;31.88;;;4.00;99.90;;;5.19;80.74;101389.88;5002497;28;20049;-85
2021/03/24 00:36:05;;;;;;;58.92;30.77;;;4.00;99.90;;;5.08;80.43;101380.09;5004227;28;20033;-84
2021/03/24 00:38:31;;;;;;;55.40;31.20;;;3.90;99.90;;;4.95;80.86;101376.19;5002177;28;20553;-85
2021/03/24 00:40:58;;;;;;;53.10;30.88;;;3.80;99.90;;;4.84;81.18;101382.19;5002062;28;20073;-84
2021/03/24 00:43:26;;;;;;;56.53;29.98;;;3.70;99.90;;;4.72;81.41;101379.88;5019898;28;20022;-83
2021/03/24 00:45:54;;;;;;;63.97;30.52;;;3.60;99.90;;;4.62;81.17;101380.88;5018664;28;20022;-84
2021/03/24 00:48:33;;;;;;;54.40;30.50;;;3.50;99.90;;;4.59;81.97;101380.66;5002330;28;20069;-86
2021/03/24 00:51:00;;;;;;;62.55;32.67;;;3.50;99.90;;;4.61;82.55;101362.63;5019430;28;20084;-83
2021/03/24 00:53:27;;;;;;;59.85;28.92;;;3.50;99.90;;;4.57;82.01;101369.06;5019649;28;20029;-83
2021/03/24 00:55:54;;;;;;;57.50;30.08;;;3.40;99.90;;;4.53;82.36;101366.06;5021093;28;20032;-81
2021/03/24 00:58:21;;;;;;;63.33;33.40;;;3.40;99.90;;;4.65;82.47;101371.16;5003239;28;20032;-86
2021/03/24 01:00:50;;;;;;;58.03;29.85;;;3.50;99.90;;;4.63;82.08;101365.91;5005039;28;20093;-84
2021/03/24 01:03:18;;;;;;;60.08;33.17;;;3.50;99.90;;;4.61;82.28;101365.41;5021440;28;20029;-84
2021/03/24 01:05:49;;;;;;;60.50;30.20;;;3.40;99.90;;;4.55;81.86;101363.84;5017694;28;20121;-81
2021/03/24 01:08:24;;;;;;;57.45;31.98;;;3.40;99.90;;;4.54;82.71;101364.13;5014654;28;20403;-83
2021/03/24 01:10:56;;;;;;;59.03;28.60;;;3.50;99.90;;;4.43;81.61;101366.22;4983871;28;20038;-85
2021/03/24 01:13:24;;;;;;;46.92;27.35;;;3.30;99.90;;;4.15;80.71;101367.19;4984065;28;20776;-83
2021/03/24 01:15:51;;;;;;;51.63;27.33;;;3.00;99.90;;;3.90;81.39;101362.84;4984698;28;20041;-85
2021/03/24 01:18:20;;;;;;;56.10;30.08;;;2.90;99.90;;;3.85;82.92;101354.63;5000031;28;20080;-83
2021/03/24 01:20:47;;;;;;;63.13;32.95;;;2.80;99.90;;;3.83;83.90;101362.38;5001219;28;20039;-82
2021/03/24 01:23:15;;;;;;;62.45;32.72;;;2.70;99.90;;;3.78;83.80;101356.94;5000794;28;20034;-83
2021/03/24 01:25:41;;;;;;;62.22;31.52;;;2.70;99.90;;;3.81;84.48;101366.56;5001757;28;20058;-84
2021/03/24 01:28:22;;;;;;;63.38;33.05;;;2.70;99.90;;;3.87;85.32;101365.38;5001240;28;20035;-84
2021/03/24 01:30:49;;;;;;;56.10;30.05;;;2.80;99.90;;;3.89;84.71;101358.44;5000552;28;20039;-84
2021/03/24 01:33:15;;;;;;;62.75;31.20;;;2.80;99.90;;;3.88;84.91;101355.97;4999062;28;20030;-85
2021/03/24 01:35:42;;;;;;;62.33;32.72;;;2.80;99.90;;;3.93;84.90;101358.66;4998502;28;20057;-86
2021/03/24 01:38:08;;;;;;;59.70;30.17;;;2.80;99.90;;;3.92;84.13;101357.00;4982793;28;20034;-83
2021/03/24 01:40:50;;;;;;;50.95;28.00;;;2.80;99.90;;;3.69;84.05;101362.28;4999921;28;20038;-86
2021/03/24 01:43:36;;;;;;;58.13;30.70;;;2.60;99.90;;;3.45;84.36;101364.22;4983207;28;20030;-86
2021/03/24 01:46:27;;;;;;;53.75;30.35;;;2.40;99.90;;;3.47;84.66;101350.94;4999347;28;20638;-85
2021/03/24 01:49:16;;;;;;;64.93;31.13;;;2.40;99.90;;;3.49;85.25;101350.66;4982828;28;20034;-84
2021/03/24 01:51:57;;;;;;;57.00;29.63;;;2.40;99.90;;;3.54;85.39;101353.34;5000762;28;20030;-84
2021/03/24 01:54:43;;;;;;;63.90;30.48;;;2.40;99.90;;;3.58;85.49;101357.16;4983445;28;20059;-83
2021/03/24 01:57:38;;;;;;;60.25;30.38;;;2.50;99.90;;;3.67;85.61;101355.41;5002070;28;20545;-82
2021/03/24 02:00:33;;;;;;;57.78;29.17;;;2.50;99.90;;;3.46;84.28;101346.56;4983422;28;20034;-86
2021/03/24 02:02:59;;;;;;;67.32;30.25;;;2.40;99.90;;;3.26;84.71;101359.75;5001633;28;20030;-87
2021/03/24 02:05:25;;;;;;;59.92;31.23;;;2.20;99.90;;;3.16;85.75;101353.22;4985672;28;20040;-87
2021/03/24 02:08:28;;;;;;;61.67;31.52;;;2.20;99.90;;;3.27;86.90;101351.19;5010262;28;20034;-85
2021/03/24 02:11:23;;;;;;;58.72;29.75;;;2.20;99.90;;;3.41;86.79;101348.53;5002269;28;20041;-83
2021/03/24 02:14:05;;;;;;;66.28;31.50;;;2.40;99.90;;;3.53;87.08;101344.22;5004916;28;20466;-83
2021/03/24 02:16:55;;;;;;;66.85;32.78;;;2.50;99.90;;;3.70;87.24;101355.63;5020394;28;20446;-84
2021/03/24 02:19:47;;;;;;;64.07;29.95;;;2.60;99.90;;;3.89;86.23;101354.84;5004403;28;20042;-85
2021/03/24 02:22:23;;;;;;;56.83;29.90;;;2.80;99.90;;;4.01;86.01;101344.19;5021219;28;20397;-85
2021/03/24 02:24:56;;;;;;;;;;;2.80;99.90;;;4.09;86.12;101341.56;5028717;28;20056;-83
2021/03/24 02:27:31;;;;;;;48.78;26.25;;;2.90;99.90;;;4.10;85.04;101334.09;5035137;28;19902;-83
2021/03/24 02:30:14;;;;;;;60.58;28.58;;;3.00;99.90;;;4.15;85.54;101343.16;5004259;28;20037;-85
2021/03/24 02:32:55;;;;;;;54.10;28.00;;;3.00;99.90;;;4.19;85.07;101344.19;5020250;28;20119;-83
2021/03/24 02:35:32;;;;;;;52.90;27.17;;;3.10;99.90;;;4.30;85.41;101341.28;5019529;28;20041;-83
2021/03/24 02:38:03;;;;;;;57.42;28.05;;;3.20;99.90;;;4.40;85.36;101338.38;5019785;28;20029;-85
2021/03/24 02:40:33;;;;;;;54.65;27.20;;;3.20;99.90;;;4.43;84.41;101332.22;5021609;28;20030;-85
2021/03/24 02:43:03;;;;;;;55.03;28.63;;;3.30;99.90;;;4.46;84.44;101335.22;5021260;28;20036;-84
2021/03/24 02:45:40;;;;;;;55.47;28.20;;;3.30;99.90;;;4.44;83.99;101339.38;5021276;28;20026;-86
2021/03/24 02:48:16;;;;;;;56.90;26.85;;;3.30;99.90;;;4.39;83.78;101336.72;5001959;28;20056;-86
2021/03/24 02:50:46;;;;;;;56.45;27.08;;;3.30;99.90;;;4.36;83.56;101334.56;5018832;28;20101;-86
2021/03/24 02:53:14;;;;;;;52.58;26.63;;;3.30;99.90;;;4.34;83.81;101334.84;5001496;28;20034;-85
2021/03/24 02:55:43;;;;;;;53.88;28.05;;;3.30;99.90;;;4.33;83.56;101327.69;5017640;28;20033;-85
2021/03/24 02:58:11;;;;;;;51.15;26.30;;;3.20;99.90;;;4.35;83.79;101339.25;5017723;28;20030;-86
2021/03/24 03:00:38;;;;;;;50.85;26.60;;;3.20;99.90;;;4.35;83.95;101328.19;5017354;28;20473;-86
2021/03/24 03:03:28;;;;;;;47.17;25.40;;;3.20;99.90;;;4.40;83.07;101333.63;5000327;28;20061;-85
2021/03/24 03:06:06;;;;;;;49.42;26.88;;;3.30;99.90;;;4.39;83.56;101336.72;5017779;28;20025;-85
2021/03/24 03:08:55;;;;;;;51.63;26.52;;;3.30;99.90;;;4.38;83.03;101337.84;5005882;28;20524;-84
2021/03/24 03:12:04;;;;;;;53.78;27.80;;;3.20;99.90;;;4.42;83.40;101330.59;4999575;28;20030;-84
2021/03/24 03:14:49;;;;;;;53.75;28.25;;;3.30;99.90;;;4.43;83.21;101335.00;5000015;28;20030;-83
2021/03/24 03:17:29;;;;;;;53.10;27.50;;;3.30;99.90;;;4.46;83.58;101337.16;4982803;28;20442;-82
2021/03/24 03:20:25;;;;;;;58.45;27.45;;;3.20;99.90;;;4.48;82.99;101334.91;4982956;28;20030;-85
2021/03/24 03:23:11;;;;;;;50.35;26.45;;;3.30;99.90;;;4.49;83.51;101336.56;4984762;28;20154;-86
2021/03/24 03:25:46;;;;;;;47.53;26.75;;;3.40;99.90;;;4.47;83.41;101331.31;5001319;28;20030;-84
2021/03/24 03:28:17;;;;;;;49.00;26.52;;;3.40;99.90;;;4.42;82.89;101327.81;5002837;28;20042;-83
2021/03/24 03:30:51;;;;;;;50.40;26.15;;;3.30;99.90;;;4.35;82.75;101317.13;5003139;28;20034;-85
2021/03/24 03:33:29;;;;;;;52.50;27.42;;;3.30;99.90;;;4.28;82.99;101327.75;5001385;28;20050;-83
2021/03/24 03:35:56;;;;;;;52.17;28.08;;;3.20;99.90;;;4.25;83.40;101331.09;5003015;28;20027;-86
2021/03/24 03:38:28;;;;;;;52.55;27.23;;;3.20;99.90;;;4.28;83.66;101319.44;5003995;28;20033;-84
2021/03/24 03:41:00;;;;;;;54.00;28.08;;;3.20;99.90;;;4.34;83.95;101322.94;5004873;28;20045;-85
2021/03/24 03:43:27;;;;;;;56.28;27.98;;;3.20;99.90;;;4.37;83.77;101325.13;4990224;28;20030;-83
2021/03/24 03:46:00;;;;;;;55.17;26.92;;;3.20;99.90;;;4.34;83.38;101323.78;5005349;28;20022;-87
2021/03/24 03:48:26;;;;;;;51.00;26.90;;;3.20;99.90;;;4.30;83.55;101322.75;5005136;28;20042;-83
2021/03/24 03:51:02;;;;;;;50.83;26.00;;;3.20;99.90;;;4.36;83.42;101324.31;5013890;28;20027;-83
2021/03/24 03:54:33;;;;;;;61.10;27.75;;;3.30;99.90;;;4.42;83.34;101330.59;4993833;28;20038;-85
2021/03/24 03:57:12;;;;;;;52.22;26.75;;;3.30;99.90;;;4.45;82.55;101332.75;4985660;28;20039;-86
2021/03/24 04:00:18;;;;;;;53.42;27.10;;;3.30;99.90;;;4.41;82.63;101324.22;5003930;28;20505;-85
2021/03/24 04:03:04;;;;;;;56.17;26.38;;;3.30;99.90;;;4.43;82.86;101338.56;5005901;28;20037;-84
2021/03/24 04:05:44;;;;;;;53.88;25.05;;;3.30;99.90;;;4.47;83.13;101331.31;4987113;28;20026;-85
2021/03/24 04:08:34;;;;;;;57.00;28.10;;;3.40;99.90;;;4.56;82.73;101331.47;4996551;28;20322;-84
2021/03/24 04:11:07;;;;;;;47.50;26.35;;;3.40;99.90;;;4.58;83.20;101329.22;5023968;28;20486;-85
2021/03/24 04:13:44;;;;;;;47.50;25.20;;;3.50;99.90;;;4.64;82.58;101330.78;5020564;28;20037;-84
2021/03/24 04:16:11;;;;;;;54.53;26.17;;;3.60;99.90;;;4.64;82.28;101322.47;5020052;28;20030;-85
2021/03/24 04:18:55;;;;;;;49.75;25.00;;;3.50;99.90;;;4.68;82.37;101327.13;5003325;28;20410;-85
2021/03/24 04:21:27;;;;;;;45.53;23.80;;;3.60;99.90;;;4.72;81.85;101330.06;5019877;28;20037;-83
2021/03/24 04:24:17;;;;;;;51.60;25.85;;;3.60;99.90;;;4.62;82.44;101314.47;5022731;28;20049;-84
2021/03/24 04:26:50;;;;;;;49.22;25.13;;;3.60;99.90;;;4.62;82.35;101314.47;5022249;28;20036;-84
2021/03/24 04:29:54;;;;;;;48.63;25.65;;;3.50;99.90;;;4.59;82.08;101314.28;5004516;28;20121;-84
2021/03/24 04:32:21;;;;;;;47.05;23.73;;;3.50;99.90;;;4.50;82.27;101311.34;5021211;28;20025;-84
2021/03/24 04:34:47;;;;;;;55.38;25.10;;;3.50;99.90;;;4.57;82.60;101319.25;5020129;28;20465;-83
2021/03/24 04:37:30;;;;;;;49.60;24.73;;;3.50;99.90;;;4.60;82.63;101322.25;5003558;28;20026;-82
2021/03/24 04:40:47;;;;;;;52.55;26.40;;;3.50;99.90;;;4.61;81.75;101328.59;5002736;28;20057;-83
2021/03/24 04:43:25;;;;;;;51.13;24.97;;;3.50;99.90;;;4.57;82.27;101333.09;5020258;28;20049;-82
2021/03/24 04:46:18;;;;;;;48.63;25.35;;;3.40;99.90;;;4.55;82.13;101329.81;5025377;28;20030;-82
2021/03/24 04:48:55;;;;;;;46.22;24.00;;;3.40;99.90;;;4.51;82.40;101329.59;5021882;28;20136;-81
2021/03/24 04:51:32;;;;;;;48.22;25.33;;;3.40;99.90;;;4.49;82.08;101342.09;5005470;28;20390;-83
2021/03/24 04:54:51;;;;;;;46.42;25.75;;;3.30;99.90;;;4.39;82.56;101343.06;5021348;28;20029;-82
2021/03/24 04:57:26;;;;;;;45.22;23.70;;;3.30;99.90;;;4.34;83.08;101345.91;5046197;23;20058;-86
2021/03/24 05:00:06;;;;;;;54.75;28.55;;;3.30;99.90;;;4.34;82.89;101345.91;5007924;28;20030;-83
2021/03/24 05:02:43;;;;;;;55.20;26.33;;;3.20;99.90;;;4.27;83.08;101339.13;5001059;28;20471;-83
2021/03/24 05:05:30;;;;;;;53.13;26.95;;;3.20;99.90;;;4.25;83.72;101337.47;5006495;28;20032;-84
2021/03/24 05:08:36;;;;;;;53.58;26.92;;;3.20;99.90;;;4.21;83.38;101339.19;4995348;28;20084;-83
2021/03/24 05:11:31;;;;;;;54.22;26.67;;;3.20;99.90;;;4.31;83.50;101340.97;4998505;28;20113;-84
2021/03/24 05:14:31;;;;;;;52.40;24.88;;;3.30;99.90;;;4.31;83.19;101334.63;4988985;28;20130;-84
2021/03/24 05:17:25;;;;;;;49.28;25.75;;;3.30;99.90;;;4.35;83.24;101336.50;4997173;28;20137;-85
2021/03/24 05:20:07;;;;;;;53.55;24.60;;;3.30;99.90;;;4.36;83.02;101335.38;4997184;28;20026;-85
2021/03/24 05:22:45;;;;;;;48.90;24.67;;;3.40;99.90;;;4.43;82.85;101335.81;4982289;28;20098;-82
2021/03/24 05:25:39;;;;;;;50.03;26.40;;;3.40;99.90;;;4.47;82.89;101338.78;5007780;28;20022;-84
2021/03/24 05:28:31;;;;;;;51.55;24.67;;;3.40;99.90;;;4.46;82.23;101339.94;4993703;28;20077;-83
2021/03/24 05:31:20;;;;;;;51.10;25.83;;;3.30;99.90;;;4.38;82.63;101346.13;5005223;28;20030;-83
2021/03/24 05:33:59;;;;;;;50.47;23.63;;;3.30;99.90;;;4.34;82.50;101345.06;4999919;28;20030;-83
2021/03/24 05:36:41;;;;;;;55.50;24.27;;;3.20;99.90;;;4.35;82.93;101346.72;5002129;28;20049;-82
2021/03/24 05:39:29;;;;;;;52.20;24.48;;;3.20;99.90;;;4.32;83.22;101350.09;5008346;28;20030;-84
2021/03/24 05:42:44;;;;;;;47.70;25.17;;;3.20;99.90;;;4.28;82.90;101349.03;5007987;28;20037;-84
2021/03/24 05:45:46;;;;;;;48.50;25.05;;;3.20;99.90;;;4.31;83.38;101345.69;5008018;28;20041;-85
2021/03/24 05:48:52;;;;;;;48.50;23.88;;;3.20;99.90;;;4.49;83.03;101355.94;5005344;28;20034;-82
2021/03/24 05:51:37;;;;;;;50.78;24.10;;;3.30;99.90;;;4.59;82.72;101348.25;5007843;28;20030;-83
2021/03/24 05:54:33;;;;;;;52.53;24.88;;;3.50;99.90;;;4.78;81.89;101356.56;5005747;28;20031;-83
2021/03/24 05:57:31;;;;;;;51.80;25.40;;;3.60;99.90;;;4.86;81.60;101352.25;5013735;28;20130;-83
2021/03/24 06:00:26;;;;;;;48.55;24.88;;;3.70;99.90;;;4.98;80.99;101355.38;5016271;28;20037;-84
2021/03/24 06:03:24;;;;;;;48.88;23.48;;;3.80;99.90;;;5.08;80.67;101357.97;5017630;28;20030;-84
2021/03/24 06:06:43;;;;;;;46.92;22.88;;;3.90;99.90;;;5.15;80.59;101350.91;5016665;28;20046;-84
2021/03/24 06:09:43;;;;;;;45.10;23.48;;;4.00;99.90;;;5.26;79.50;101348.78;5014541;28;20094;-82
2021/03/24 06:12:35;;;;;;;51.05;24.58;;;4.20;99.90;;;5.30;79.14;101342.31;5003868;28;20497;-84
2021/03/24 06:15:07;;;;;;;45.15;23.52;;;4.20;99.90;;;5.45;79.71;101343.16;5001962;28;20030;-86
2021/03/24 06:18:36;;;;;;;51.85;22.42;;;4.30;99.90;;;5.54;78.63;101349.59;5003606;28;20045;-86
2021/03/24 06:21:21;;;;;;;40.78;22.33;;;4.50;99.90;;;5.73;77.76;101345.59;4991903;28;20450;-85
2021/03/24 06:24:27;;;;;;;46.28;23.08;;;4.60;99.90;;;5.80;77.74;101351.56;4991782;28;20462;-87
2021/03/24 06:27:28;;;;;;;45.17;22.50;;;4.80;99.90;;;6.09;77.14;101355.97;4996723;28;20037;-84
2021/03/24 06:30:34;;;;;;;47.40;22.50;;;5.00;99.90;;;6.33;75.94;101342.63;4996434;28;20273;-84
2021/03/24 06:34:06;;;;;;;41.03;21.75;;;5.10;99.90;;;6.78;74.06;101347.09;5003740;28;20125;-85
2021/03/24 06:37:07;;;;;;;38.33;21.85;;;5.30;99.90;;;6.95;74.06;101345.56;4912113;29;20032;-83
2021/03/24 06:40:01;;;;;;;41.47;20.90;;;5.60;99.90;;;7.34;73.10;101340.06;4927121;29;20091;-85
2021/03/24 06:43:28;;;;;;;37.90;21.50;;;5.70;99.90;;;7.49;71.74;101352.72;4990529;28;20039;-84
2021/03/24 06:46:38;;;;;;;44.83;21.97;;;5.90;99.90;;;7.67;71.40;101351.66;5009977;28;20022;-85
2021/03/24 06:49:43;;;;;;;41.05;20.60;;;6.10;99.90;;;7.82;70.89;101348.44;5014242;28;20047;-84
2021/03/24 06:52:46;;;;;;;39.00;21.90;;;6.30;99.90;;;7.99;71.26;101344.88;5002035;28;20100;-84
2021/03/24 06:56:30;;;;;;;44.75;22.02;;;6.50;99.90;;;8.08;69.81;101345.72;5001873;28;20036;-84
2021/03/24 06:59:29;;;;;;;38.40;21.40;;;6.70;99.90;;;8.25;69.12;101352.09;5007247;28;20027;-85
2021/03/24 07:02:41;;;;;;;39.40;21.77;;;6.90;99.90;;;8.33;69.68;101347.75;5012352;28;20026;-85
2021/03/24 07:05:44;;;;;;;41.22;21.83;;;7.10;99.90;;;8.55;67.67;101363.47;5017093;28;20045;-85
2021/03/24 07:08:57;;;;;;;37.80;21.17;;;7.20;99.90;;;8.55;68.99;101353.16;5008772;28;20035;-85
2021/03/24 07:11:43;;;;;;;42.30;21.40;;;7.40;99.90;;;8.93;66.98;101358.84;4986664;28;20035;-87
2021/03/24 07:14:36;;;;;;;40.42;20.90;;;7.50;99.90;;;9.11;66.89;101359.66;4984489;28;20037;-86
2021/03/24 07:18:00;;;;;;;44.67;22.27;;;7.70;99.90;;;9.15;66.33;101360.63;4984168;28;20031;-84
2021/03/24 07:21:09;;;;;;;;;;;;;;;;;;;;;
2021/03/24 07:24:22;;;;;;;41.08;21.83;;;8.20;99.90;;;9.72;64.26;101363.88;4992777;28;20537;-85
2021/03/24 07:27:23;;;;;;;36.67;19.77;;;8.40;99.90;;;9.85;64.79;101366.44;4993001;28;20054;-87
2021/03/24 07:30:14;;;;;;;37.20;21.75;;;8.60;99.90;;;9.95;63.99;101368.03;4992044;28;20035;-84
2021/03/24 07:33:08;;;;;;;42.10;21.08;;;8.80;99.90;;;9.77;63.57;101369.25;4995128;28;20034;-87
2021/03/24 07:36:23;;;;;;;41.58;21.25;;;8.80;99.90;;;10.29;62.76;101370.63;4997943;28;20019;-85
2021/03/24 07:39:35;;;;;;;40.70;20.95;;;9.10;99.90;;;10.45;61.98;101376.44;4996953;28;20057;-85
2021/03/24 07:43:07;;;;;;;39.38;21.33;;;9.30;99.90;;;10.90;60.45;101371.78;4995481;28;20035;-84
2021/03/24 07:46:07;;;;;;;40.65;20.60;;;9.60;99.90;;;11.28;60.17;101365.97;4997692;28;20015;-85
2021/03/24 07:49:14;;;;;;;38.80;20.15;;;9.90;99.90;;;11.42;58.89;101365.66;4993765;28;20022;-85
2021/03/24 07:52:14;;;;;;;41.22;19.92;;;10.10;99.90;;;11.45;59.11;101364.97;4987580;28;20101;-87
2021/03/24 07:55:19;;;;;;;34.53;21.88;;;10.40;99.90;;;11.84;58.61;101361.56;4988933;28;20557;-86
2021/03/24 07:58:17;;;;;;;37.35;21.73;;;10.60;99.90;;;12.29;56.96;101360.59;4988288;28;20054;-85
2021/03/24 08:00:54;;;;;;;39.13;21.77;;;10.90;99.90;;;12.33;57.23;101361.53;4997896;28;20090;-81
2021/03/24 08:03:54;;;;;;;42.58;22.05;;;11.00;99.90;;;11.85;57.95;101351.97;4983354;28;20050;-87
2021/03/24 08:07:29;;;;;;;39.97;21.30;;;11.00;99.90;;;12.13;57.69;101360.50;4979114;28;20247;-87
2021/03/24 08:10:33;;;;;;;37.65;20.20;;;11.10;99.90;;;12.62;56.33;101359.22;4950877;28;20038;-88
2021/03/24 08:13:29;;;;;;;40.22;22.45;;;11.40;99.90;;;12.19;57.49;101350.69;4997699;28;20027;-86
2021/03/24 08:16:10;;;;;;;;;;;11.40;99.90;;;12.52;56.30;101353.31;4998715;28;20035;-85
2021/03/24 08:19:07;;;;;;;40.97;22.77;;;11.50;99.90;;;12.74;56.58;101355.56;4997661;28;19938;-88
2021/03/24 08:22:19;;;;;;;;;;;11.70;99.90;;;12.88;54.55;101352.34;4998736;28;20113;-88
2021/03/24 08:25:43;;;;;;;42.35;22.02;;;11.90;99.90;;;13.22;55.10;101357.38;4999371;28;19937;-88
2021/03/24 08:29:02;;;;;;;41.80;22.98;;;12.10;99.90;;;13.38;54.32;101352.59;4995998;28;20573;-87
2021/03/24 08:32:31;;;;;;;45.80;23.90;;;12.30;99.90;;;14.20;52.86;101353.47;4995940;28;20042;-86
2021/03/24 08:36:00;;;;;;;43.75;24.38;;;12.70;99.90;;;14.22;51.76;101347.50;4980004;28;20064;-89
2021/03/24 08:38:42;;;;;;;46.38;24.30;;;13.00;99.90;;;14.22;52.12;101350.31;4996391;28;20547;-87
2021/03/24 08:42:02;;;;;;;45.13;23.40;;;13.00;99.90;;;14.44;51.99;101351.63;4995484;28;20039;-87
2021/03/24 08:45:26;;;;;;;45.30;24.92;;;13.10;99.90;;;13.93;52.25;101348.00;4978971;28;20509;-87
2021/03/24 08:48:13;;;;;;;44.83;23.98;;;12.90;99.90;;;14.21;52.16;101349.50;4939614;28;20047;-85
2021/03/24 08:51:07;;;;;;;39.33;23.17;;;13.10;99.90;;;14.76;50.71;101341.91;4979038;28;20078;-87
2021/03/24 08:54:31;;;;;;;42.78;24.85;;;13.40;99.90;;;14.45;51.46;101336.41;4980119;28;20394;-87
2021/03/24 08:57:45;;;;;;;44.17;26.10;;;13.40;99.90;;;14.95;50.00;101349.50;4995405;28;20058;-86
2021/03/24 09:00:44;;;;;;;41.30;24.05;;;13.60;99.20;;;14.71;50.65;101347.81;4995403;28;20023;-87
2021/03/24 09:03:42;;;;;;;44.47;24.60;;;13.70;99.10;;;15.01;49.86;101346.03;4980233;28;20042;-87
2021/03/24 09:06:51;;;;;;;45.70;26.13;;;13.70;97.90;;;15.26;49.19;101340.88;4981984;28;20063;-88
2021/03/24 09:10:10;;;;;;;48.05;26.85;;;13.90;96.00;;;15.83;47.77;101342.72;5005501;28;20077;-87
2021/03/24 09:13:27;;;;;;;48.42;26.45;;;14.20;94.20;;;15.12;49.88;101340.63;4999936;28;20026;-87
2021/03/24 09:16:14;;;;;;;45.55;26.00;;;14.20;93.70;;;15.89;47.58;101335.59;5002049;28;20137;-86
2021/03/24 09:19:04;;;;;;;46.20;26.25;;;14.50;92.50;;;15.30;48.27;101339.78;4998491;28;20128;-86
2021/03/24 09:21:55;;;;;;;47.20;26.38;;;14.50;90.80;;;15.91;47.85;101329.59;4968376;28;20046;-87
2021/03/24 09:25:32;;;;;;;42.40;24.75;;;14.50;91.40;;;16.44;46.58;101330.41;5000589;28;20034;-88
2021/03/24 09:28:51;;;;;;;43.90;26.92;;;14.80;91.10;;;16.30;46.19;101331.00;5000858;28;20096;-89
2021/03/24 09:32:33;;;;;;;50.33;28.92;;;15.00;88.90;;;16.26;46.44;101327.31;4998899;28;20056;-89
2021/03/24 09:35:29;;;;;;;51.53;29.58;;;15.00;86.10;;;16.70;45.75;101325.53;4991800;28;20035;-87
2021/03/24 09:38:14;;;;;;;53.33;31.02;;;15.30;84.90;;;16.37;45.88;101322.66;4998652;28;20169;-88
2021/03/24 09:40:48;;;;;;;54.40;30.30;;;15.20;82.00;;;15.94;46.50;101324.00;4998908;28;20042;-89
2021/03/24 09:43:23;;;;;;;52.33;30.00;;;15.00;82.40;;;16.34;45.52;101323.41;4997649;28;20470;-85
2021/03/24 09:46:20;;;;;;;50.17;30.30;;;15.10;81.20;;;16.39;45.48;101323.06;4997332;28;20023;-86
2021/03/24 09:49:00;;;;;;;54.20;30.67;;;15.20;80.60;;;16.01;46.54;101312.03;4997363;28;20034;-87
2021/03/24 09:51:43;;;;;;;49.10;29.88;;;15.10;80.60;;;16.50;45.58;101311.94;4997167;28;20387;-86
2021/03/24 09:54:24;;;;;;;48.78;28.98;;;15.20;80.60;;;15.82;46.31;101316.59;4996480;28;20081;-86
2021/03/24 09:57:18;;;;;;;50.10;29.25;;;15.00;79.10;;;16.10;46.58;101313.38;4996603;28;20065;-83
2021/03/24 10:00:15;;;;;;;50.70;29.95;;;14.90;81.00;;;16.20;45.47;101326.84;4997507;28;20031;-84
2021/03/24 10:03:15;;;;;;;49.20;29.13;;;15.00;79.00;;;16.05;46.03;101315.72;5003480;28;20037;-86
2021/03/24 10:05:59;;;;;;;53.65;29.35;;;15.00;81.70;;;16.51;45.20;101320.00;5005998;28;20030;-83
2021/03/24 10:08:45;;;;;;;53.25;29.98;;;15.20;79.40;;;16.63;44.20;101319.00;4986935;28;20097;-86
2021/03/24 10:11:29;;;;;;;55.80;31.02;;;15.40;76.60;;;16.67;44.42;101312.19;4978952;28;20027;-82
2021/03/24 10:14:20;;;;;;;51.53;29.42;;;15.30;78.00;;;16.90;43.84;101312.06;4995545;28;20042;-82
2021/03/24 10:16:58;;;;;;;51.10;29.02;;;15.60;76.10;;;16.93;44.70;101313.31;4981330;28;20035;-88
2021/03/24 10:19:40;;;;;;;61.45;32.38;;;15.70;76.80;;;16.59;43.46;101306.88;4978263;28;20081;-88
2021/03/24 10:22:24;;;;;;;53.20;29.75;;;15.60;73.10;;;16.89;44.25;101307.63;4977530;28;20069;-88
2021/03/24 10:25:20;;;;;;;51.03;28.02;;;15.80;75.90;;;17.09;44.44;101313.91;4977962;28;20054;-88
2021/03/24 10:27:53;;;;;;;50.22;29.65;;;15.90;74.60;;;17.50;43.03;101306.28;4977702;28;20082;-87
2021/03/24 10:30:39;;;;;;;57.78;31.30;;;16.10;73.40;;;17.43;43.08;101301.38;4979046;28;20102;-89
2021/03/24 10:33:43;;;;;;;;;;;16.20;72.10;;;17.58;41.93;101300.31;4978664;28;20033;-86
2021/03/24 10:36:51;;;;;;;50.60;29.70;;;16.30;71.40;;;18.04;41.02;101306.34;4975816;28;20005;-88
2021/03/24 10:40:04;;;;;;;60.40;32.03;;;16.40;70.10;;;17.28;42.37;101296.75;4976269;28;20041;-87
2021/03/24 10:43:26;;;;;;;53.90;30.98;;;16.20;69.80;;;17.82;40.82;101284.75;4977483;28;20211;-86
2021/03/24 10:46:36;;;;;;;55.35;30.52;;;16.20;68.50;;;17.63;42.35;101293.47;4883277;29;20029;-86
2021/03/24 10:49:22;;;;;;;65.03;32.38;;;16.20;69.80;;;17.60;42.27;101289.44;4977104;28;20030;-85
2021/03/24 10:52:16;;;;;;;62.38;32.03;;;16.40;69.40;;;18.41;40.39;101297.66;4978015;28;20034;-88
2021/03/24 10:54:44;;;;;;;69.22;32.50;;;16.70;69.10;;;18.60;38.95;101293.75;4979796;28;20034;-87
2021/03/24 10:57:48;;;;;;;65.57;33.03;;;16.90;65.60;;;18.62;39.08;101288.53;4987628;23;20093;-81
2021/03/24 11:00:35;;;;;;;61.97;32.45;;;17.10;64.20;;;18.56;39.92;101287.28;5006149;28;20092;-85
2021/03/24 11:03:19;;;;;;;;;;;17.10;65.90;;;18.24;39.74;101282.22;4991895;28;20027;-84
2021/03/24 11:06:07;;;;;;;59.28;32.05;;;17.10;64.50;;;18.34;40.38;101287.13;5010203;28;19934;-82
2021/03/24 11:09:16;;;;;;;58.78;32.05;;;17.10;65.80;;;18.41;39.69;101287.16;5012894;28;20022;-83
2021/03/24 11:12:04;;;;;;;55.33;31.17;;;17.10;64.00;;;18.88;38.46;101274.03;4986642;28;20037;-83
2021/03/24 11:14:41;;;;;;;65.50;31.23;;;17.30;63.80;;;18.73;39.84;101273.19;4985887;28;20034;-83
2021/03/24 11:17:38;;;;;;;56.58;30.10;;;17.30;64.40;;;19.13;37.86;101282.63;4987196;28;20034;-84
2021/03/24 11:20:18;;;;;;;59.17;31.10;;;17.60;62.90;;;18.28;39.98;101274.56;4985493;28;20037;-84
2021/03/24 11:23:12;;;;;;;62.20;31.85;;;17.50;62.90;;;18.43;38.86;101275.44;4988880;28;20034;-83
2021/03/24 11:26:26;;;;;;;65.00;30.60;;;17.30;61.10;;;18.77;39.04;101264.72;5008579;28;20022;-86
2021/03/24 11:29:01;;;;;;;53.20;27.25;;;17.50;62.50;;;19.34;37.80;101265.66;4994867;28;20030;-88
2021/03/24 11:32:06;;;;;;;56.75;29.35;;;17.80;61.20;;;19.40;37.73;101262.03;4992857;28;20045;-83
2021/03/24 11:34:52;;;;;;;55.95;27.30;;;17.90;59.70;;;19.02;38.01;101261.97;4968925;28;20038;-87
2021/03/24 11:37:50;;;;;;;55.40;30.40;;;17.80;60.10;;;17.79;39.05;101254.47;4985753;28;20026;-84
2021/03/24 11:40:33;;;;;;;53.58;29.70;;;17.40;59.40;;;17.86;40.10;101254.53;4987847;28;20034;-84